createdAt,value
2022-08-01T00:01:12.194Z,100909.19
2022-08-01T00:03:38.449Z,100918.53
2022-08-01T00:06:04.653Z,100912.38
2022-08-01T00:08:30.949Z,100921.06
2022-08-01T00:11:00.335Z,100898.69
2022-08-01T00:13:28.710Z,100904.00
2022-08-01T00:15:54.918Z,100904.25
2022-08-01T00:18:21.125Z,100896.66
2022-08-01T00:20:47.350Z,100908.16
2022-08-01T00:23:13.555Z,100906.44
2022-08-01T00:25:39.727Z,100902.22
2022-08-01T00:28:05.939Z,100897.38
2022-08-01T00:30:32.152Z,100895.06
2022-08-01T00:32:58.331Z,100896.13
2022-08-01T00:35:24.548Z,100903.78
2022-08-01T00:37:50.758Z,100890.22
2022-08-01T00:40:16.977Z,100902.09
2022-08-01T00:42:43.871Z,100894.28
2022-08-01T00:45:10.305Z,100889.19
2022-08-01T00:47:36.523Z,100891.13
2022-08-01T00:50:02.709Z,100890.03
2022-08-01T00:52:28.928Z,100897.47
2022-08-01T00:54:55.173Z,100894.72
2022-08-01T00:58:01.737Z,100898.09
2022-08-01T01:00:07.587Z,100893.19
2022-08-01T01:02:33.784Z,100894.28
2022-08-01T01:04:59.997Z,100889.84
2022-08-01T01:07:26.179Z,100886.63
2022-08-01T01:09:52.411Z,100887.25
2022-08-01T01:12:18.657Z,100879.22
2022-08-01T01:14:44.911Z,100875.59
2022-08-01T01:17:11.119Z,100883.88
2022-08-01T01:19:37.298Z,100881.56
2022-08-01T01:22:03.840Z,100878.81
2022-08-01T01:24:30.183Z,100879.88
2022-08-01T01:26:56.412Z,100886.22
2022-08-01T01:29:22.587Z,100871.63
2022-08-01T01:31:48.879Z,100871.00
2022-08-01T01:34:15.149Z,100874.19
2022-08-01T01:36:41.350Z,100878.03
2022-08-01T01:39:07.596Z,100880.38
2022-08-01T01:41:33.814Z,100870.66
2022-08-01T01:44:00.035Z,100881.88
2022-08-01T01:46:26.246Z,100870.47
2022-08-01T01:48:52.492Z,100876.44
2022-08-01T01:51:18.744Z,100878.53
2022-08-01T01:53:44.962Z,100875.19
2022-08-01T01:56:11.151Z,100872.03
2022-08-01T01:58:37.336Z,100871.41
2022-08-01T02:01:03.800Z,100866.94
2022-08-01T02:03:30.030Z,100871.00
2022-08-01T02:05:56.281Z,100873.94
2022-08-01T02:08:22.489Z,100870.56
2022-08-01T02:10:49.011Z,100871.63
2022-08-01T02:13:15.226Z,100880.09
2022-08-01T02:15:59.875Z,100865.94
2022-08-01T02:18:26.729Z,100870.59
2022-08-01T02:20:53.097Z,100864.47
2022-08-01T02:23:20.024Z,100868.28
2022-08-01T02:26:10.938Z,100866.59
2022-08-01T02:28:32.426Z,100861.28
2022-08-01T02:30:58.622Z,100863.22
2022-08-01T02:33:24.814Z,100864.28
2022-08-01T02:36:30.095Z,100857.94
2022-08-01T02:38:37.236Z,100860.06
2022-08-01T02:41:03.472Z,100858.16
2022-08-01T02:43:29.653Z,100864.50
2022-08-01T02:45:55.816Z,100859.84
2022-08-01T02:48:22.071Z,100857.09
2022-08-01T02:50:48.254Z,100861.53
2022-08-01T02:53:14.464Z,100865.97
2022-08-01T02:55:40.666Z,100869.56
2022-08-01T02:58:06.889Z,100871.25
2022-08-01T03:00:33.089Z,100865.75
2022-08-01T03:02:59.299Z,100873.78
2022-08-01T03:05:25.505Z,100868.28
2022-08-01T03:07:51.733Z,100860.03
2022-08-01T03:10:19.054Z,100870.19
2022-08-01T03:12:45.264Z,100864.91
2022-08-01T03:15:13.198Z,100868.72
2022-08-01T03:17:39.388Z,100873.38
2022-08-01T03:20:05.626Z,100872.53
2022-08-01T03:22:31.811Z,100878.03
2022-08-01T03:24:58.003Z,100890.31
2022-08-01T03:27:24.221Z,100883.16
2022-08-01T03:29:50.418Z,100882.31
2022-08-01T03:32:16.691Z,100880.41
2022-08-01T03:34:42.895Z,100883.16
2022-08-01T03:37:09.123Z,100880.16
2022-08-01T03:39:35.345Z,100884.59
2022-08-01T03:42:01.577Z,100879.94
2022-08-01T03:44:27.768Z,100882.69
2022-08-01T03:46:54.041Z,100885.66
2022-08-01T03:49:20.244Z,100878.50
2022-08-01T03:51:46.441Z,100889.50
2022-08-01T03:54:12.682Z,100887.56
2022-08-01T03:56:38.887Z,100888.41
2022-08-01T03:59:05.112Z,100892.84
2022-08-01T04:01:31.384Z,100885.91
2022-08-01T04:03:57.609Z,100889.50
2022-08-01T04:06:23.801Z,100891.16
2022-08-01T04:08:49.992Z,100892.84
2022-08-01T04:11:16.194Z,100885.66
2022-08-01T04:13:44.400Z,100891.63
2022-08-01T04:16:10.819Z,100903.66
2022-08-01T04:18:37.030Z,100898.16
2022-08-01T04:21:03.294Z,100901.97
2022-08-01T04:23:29.490Z,100899.22
2022-08-01T04:25:55.727Z,100901.38
2022-08-01T04:28:21.937Z,100912.16
2022-08-01T04:30:48.170Z,100915.53
2022-08-01T04:33:14.379Z,100908.13
2022-08-01T04:36:04.171Z,100909.63
2022-08-01T04:38:26.762Z,100908.97
2022-08-01T04:40:52.963Z,100915.31
2022-08-01T04:43:19.179Z,100908.97
2022-08-01T04:45:45.386Z,100916.38
2022-08-01T04:48:11.609Z,100921.06
2022-08-01T04:50:37.785Z,100918.31
2022-08-01T04:53:05.094Z,100919.97
2022-08-01T04:55:31.316Z,100921.69
2022-08-01T04:57:57.518Z,100922.53
2022-08-01T05:00:23.748Z,100919.13
2022-08-01T05:02:49.941Z,100914.94
2022-08-01T05:05:17.597Z,100919.97
2022-08-01T05:07:45.480Z,100921.22
2022-08-01T05:10:12.011Z,100919.13
2022-08-01T05:12:38.190Z,100926.72
2022-08-01T05:15:04.437Z,100926.28
2022-08-01T05:17:30.621Z,100925.03
2022-08-01T05:19:56.796Z,100922.88
2022-08-01T05:22:23.016Z,100926.28
2022-08-01T05:24:49.353Z,100932.38
2022-08-01T05:27:16.358Z,100927.94
2022-08-01T05:29:44.865Z,100932.38
2022-08-01T05:32:11.279Z,100936.81
2022-08-01T05:34:37.495Z,100939.59
2022-08-01T05:37:03.709Z,100932.38
2022-08-01T05:39:29.911Z,100931.31
2022-08-01T05:41:56.125Z,100934.06
2022-08-01T05:44:22.354Z,100935.97
2022-08-01T05:46:48.530Z,100941.28
2022-08-01T05:49:14.788Z,100942.97
2022-08-01T05:51:41.067Z,100943.78
2022-08-01T05:54:07.322Z,100938.75
2022-08-01T05:56:33.601Z,100930.03
2022-08-01T05:58:59.798Z,100941.25
2022-08-01T06:01:26.020Z,100944.19
2022-08-01T06:03:52.283Z,100940.13
2022-08-01T06:06:18.478Z,100944.13
2022-08-01T06:08:51.585Z,100949.19
2022-08-01T06:11:17.968Z,100943.47
2022-08-01T06:13:48.360Z,100948.53
2022-08-01T06:16:15.193Z,100954.69
2022-08-01T06:18:41.373Z,100947.03
2022-08-01T06:21:07.591Z,100943.84
2022-08-01T06:23:33.790Z,100950.81
2022-08-01T06:25:59.996Z,100945.94
2022-08-01T06:28:26.221Z,100945.03
2022-08-01T06:30:52.443Z,100944.78
2022-08-01T06:33:18.627Z,100955.75
2022-08-01T06:35:44.874Z,100952.78
2022-08-01T06:38:11.067Z,100955.75
2022-08-01T06:40:37.312Z,100961.28
2022-08-01T06:43:03.541Z,100962.31
2022-08-01T06:45:29.713Z,100952.53
2022-08-01T06:47:55.913Z,100960.53
2022-08-01T06:50:22.101Z,100963.47
2022-08-01T06:52:48.358Z,100962.72
2022-08-01T06:55:14.556Z,100966.44
2022-08-01T06:57:40.753Z,100963.84
2022-08-01T07:00:06.957Z,100971.91
2022-08-01T07:02:33.204Z,100962.56
2022-08-01T07:04:59.428Z,100961.25
2022-08-01T07:07:25.659Z,100960.81
2022-08-01T07:09:53.120Z,100963.13
2022-08-01T07:12:19.509Z,100964.38
2022-08-01T07:14:45.692Z,100961.34
2022-08-01T07:17:11.922Z,100971.97
2022-08-01T07:19:38.526Z,100966.44
2022-08-01T07:22:05.098Z,100962.47
2022-08-01T07:24:31.900Z,100960.13
2022-08-01T07:26:58.090Z,100969.47
2022-08-01T07:29:25.104Z,100966.97
2022-08-01T07:31:51.342Z,100978.38
2022-08-01T07:34:17.550Z,100973.50
2022-08-01T07:36:43.762Z,100973.63
2022-08-01T07:39:09.983Z,100974.25
2022-08-01T07:42:04.644Z,100979.38
2022-08-01T07:44:22.551Z,100985.13
2022-08-01T07:46:48.854Z,100989.78
2022-08-01T07:49:15.126Z,100990.63
2022-08-01T07:51:41.484Z,100999.97
2022-08-01T07:54:07.710Z,101007.34
2022-08-01T07:56:33.898Z,101007.53
2022-08-01T07:59:00.137Z,101002.59
2022-08-01T08:01:26.394Z,101006.59
2022-08-01T08:03:52.652Z,101006.09
2022-08-01T08:06:18.844Z,101005.81
2022-08-01T08:08:45.054Z,101007.91
2022-08-01T08:11:11.237Z,101001.81
2022-08-01T08:13:37.446Z,101009.50
2022-08-01T08:16:03.657Z,100998.47
2022-08-01T08:18:29.862Z,100998.38
2022-08-01T08:20:56.056Z,100999.94
2022-08-01T08:23:41.421Z,101007.84
2022-08-01T08:26:08.499Z,101007.22
2022-08-01T08:28:34.849Z,101004.38
2022-08-01T08:31:01.042Z,101007.59
2022-08-01T08:33:28.036Z,101010.69
2022-08-01T08:35:54.496Z,100998.25
2022-08-01T08:38:20.710Z,100997.03
2022-08-01T08:40:54.870Z,101003.63
2022-08-01T08:43:21.054Z,101001.91
2022-08-01T08:45:58.104Z,101018.50
2022-08-01T08:48:27.726Z,101009.59
2022-08-01T08:50:54.336Z,101020.28
2022-08-01T08:53:20.552Z,101024.47
2022-08-01T08:55:55.445Z,101022.25
2022-08-01T08:58:26.299Z,101029.38
2022-08-01T09:00:57.670Z,101030.16
2022-08-01T09:03:24.070Z,101033.31
2022-08-01T09:05:50.350Z,101027.09
2022-08-01T09:08:16.587Z,101039.94
2022-08-01T09:10:42.807Z,101042.72
2022-08-01T09:13:09.029Z,101043.34
2022-08-01T09:15:35.246Z,101044.41
2022-08-01T09:18:01.448Z,101039.34
2022-08-01T09:20:27.673Z,101048.34
2022-08-01T09:22:53.855Z,101045.41
2022-08-01T09:25:20.174Z,101049.88
2022-08-01T09:27:46.664Z,101055.63
2022-08-01T09:30:12.978Z,101057.31
2022-08-01T09:32:39.285Z,101057.69
2022-08-01T09:35:05.964Z,101056.41
2022-08-01T09:37:38.276Z,101066.97
2022-08-01T09:40:13.461Z,101075.88
2022-08-01T09:42:39.682Z,101068.69
2022-08-01T09:45:07.321Z,101073.81
2022-08-01T09:47:33.654Z,101071.75
2022-08-01T09:50:00.037Z,101075.41
2022-08-01T09:52:29.322Z,101080.94
2022-08-01T09:54:55.771Z,101084.34
2022-08-01T09:57:22.259Z,101078.94
2022-08-01T09:59:58.240Z,101086.91
2022-08-01T10:02:25.239Z,101085.13
2022-08-01T10:04:55.806Z,101085.41
2022-08-01T10:07:27.689Z,101080.50
2022-08-01T10:10:08.875Z,101087.03
2022-08-01T10:12:37.699Z,101086.78
2022-08-01T10:15:03.883Z,101095.91
2022-08-01T10:17:51.132Z,101092.31
2022-08-01T10:20:28.919Z,101092.31
2022-08-01T10:22:56.257Z,101095.91
2022-08-01T10:25:42.850Z,101094.53
2022-08-01T10:28:08.667Z,101094.47
2022-08-01T10:30:35.067Z,101091.00
2022-08-01T10:33:01.318Z,101098.09
2022-08-01T10:35:46.784Z,101097.16
2022-08-01T10:38:14.131Z,101099.00
2022-08-01T10:40:40.431Z,101090.75
2022-08-01T10:43:06.799Z,101101.63
2022-08-01T10:45:33.047Z,101097.78
2022-08-01T10:47:59.237Z,101091.66
2022-08-01T10:50:26.083Z,101103.53
2022-08-01T10:52:52.429Z,101101.88
2022-08-01T10:55:18.724Z,101106.19
2022-08-01T10:57:48.870Z,101107.00
2022-08-01T11:00:19.333Z,101116.75
2022-08-01T11:02:45.767Z,101122.69
2022-08-01T11:05:14.298Z,101121.16
2022-08-01T11:07:40.723Z,101119.50
2022-08-01T11:10:14.700Z,101122.72
2022-08-01T11:12:41.322Z,101118.50
2022-08-01T11:15:10.307Z,101124.25
2022-08-01T11:17:38.086Z,101118.97
2022-08-01T11:20:08.205Z,101126.41
2022-08-01T11:22:34.624Z,101128.34
2022-08-01T11:25:01.254Z,101133.38
2022-08-01T11:27:27.614Z,101132.09
2022-08-01T11:29:57.706Z,101136.69
2022-08-01T11:32:23.925Z,101130.84
2022-08-01T11:34:50.160Z,101136.78
2022-08-01T11:37:16.366Z,101141.00
2022-08-01T11:39:42.623Z,101142.22
2022-08-01T11:42:09.242Z,101132.00
2022-08-01T11:44:35.544Z,101133.59
2022-08-01T11:47:01.870Z,101131.00
2022-08-01T11:49:29.281Z,101140.44
2022-08-01T11:51:55.869Z,101126.03
2022-08-01T11:54:35.063Z,101127.50
2022-08-01T11:57:02.199Z,101125.97
2022-08-01T11:59:34.007Z,101131.66
2022-08-01T12:02:07.369Z,101129.88
2022-08-01T12:04:33.946Z,101127.59
2022-08-01T12:07:00.451Z,101118.97
2022-08-01T12:09:26.670Z,101109.97
2022-08-01T12:11:52.881Z,101112.09
2022-08-01T12:14:19.090Z,101117.66
2022-08-01T12:16:45.309Z,101113.09
2022-08-01T12:19:11.612Z,101117.19
2022-08-01T12:21:38.057Z,101119.31
2022-08-01T12:24:04.264Z,101109.28
2022-08-01T12:26:31.936Z,101116.38
2022-08-01T12:28:58.661Z,101108.78
2022-08-01T12:31:24.894Z,101125.94
2022-08-01T12:33:51.197Z,101114.22
2022-08-01T12:36:17.419Z,101115.56
2022-08-01T12:38:43.684Z,101121.03
2022-08-01T12:41:09.898Z,101115.03
2022-08-01T12:43:36.797Z,101119.28
2022-08-01T12:46:03.163Z,101123.16
2022-08-01T12:48:29.488Z,101126.06
2022-08-01T12:50:55.816Z,101126.06
2022-08-01T12:53:22.525Z,101123.78
2022-08-01T12:55:58.321Z,101129.19
2022-08-01T12:58:26.219Z,101123.53
2022-08-01T13:00:52.485Z,101123.41
2022-08-01T13:03:18.806Z,101123.22
2022-08-01T13:05:44.998Z,101127.25
2022-08-01T13:08:11.200Z,101124.75
2022-08-01T13:10:37.437Z,101135.63
2022-08-01T13:13:03.617Z,101124.19
2022-08-01T13:15:29.873Z,101126.69
2022-08-01T13:17:56.131Z,101125.75
2022-08-01T13:20:22.434Z,101133.25
2022-08-01T13:22:48.735Z,101130.72
2022-08-01T13:25:16.088Z,101141.56
2022-08-01T13:27:53.735Z,101137.38
2022-08-01T13:30:20.384Z,101137.72
2022-08-01T13:32:46.615Z,101133.13
2022-08-01T13:35:12.866Z,101136.25
2022-08-01T13:37:39.417Z,101134.56
2022-08-01T13:40:05.845Z,101140.97
2022-08-01T13:42:32.122Z,101147.94
2022-08-01T13:44:58.345Z,101138.66
2022-08-01T13:47:31.023Z,101130.56
2022-08-01T13:49:58.376Z,101137.59
2022-08-01T13:52:24.773Z,101139.03
2022-08-01T13:54:50.968Z,101141.81
2022-08-01T13:57:17.230Z,101138.91
2022-08-01T13:59:43.493Z,101136.38
2022-08-01T14:02:09.823Z,101145.91
2022-08-01T14:04:36.126Z,101138.44
2022-08-01T14:07:09.557Z,101150.22
2022-08-01T14:09:44.912Z,101140.47
2022-08-01T14:12:24.144Z,101141.50
2022-08-01T14:14:50.366Z,101146.28
2022-08-01T14:17:16.585Z,101149.53
2022-08-01T14:19:46.227Z,101149.00
2022-08-01T14:22:12.693Z,101147.72
2022-08-01T14:24:39.043Z,101158.34
2022-08-01T14:27:07.284Z,101159.75
2022-08-01T14:29:54.803Z,101155.25
2022-08-01T14:32:19.736Z,101150.81
2022-08-01T14:34:54.917Z,101163.09
2022-08-01T14:37:21.216Z,101172.38
2022-08-01T14:39:54.480Z,101164.72
2022-08-01T14:42:20.973Z,101166.34
2022-08-01T14:44:50.039Z,101168.66
2022-08-01T14:47:21.785Z,101177.41
2022-08-01T14:49:48.698Z,101178.88
2022-08-01T14:52:15.063Z,101184.22
2022-08-01T14:54:41.279Z,101184.28
2022-08-01T14:57:07.530Z,101190.66
2022-08-01T14:59:33.726Z,101183.81
2022-08-01T15:01:59.944Z,101182.63
2022-08-01T15:04:26.167Z,101187.31
2022-08-01T15:06:52.404Z,101189.00
2022-08-01T15:09:18.640Z,101185.63
2022-08-01T15:11:44.842Z,101192.53
2022-08-01T15:14:11.089Z,101191.69
2022-08-01T15:16:37.309Z,101191.91
2022-08-01T15:19:03.511Z,101199.25
2022-08-01T15:21:41.312Z,101185.13
2022-08-01T15:24:08.309Z,101183.16
2022-08-01T15:26:34.543Z,101186.47
2022-08-01T15:29:00.724Z,101188.22
2022-08-01T15:31:26.959Z,101188.09
2022-08-01T15:33:54.101Z,101188.34
2022-08-01T15:36:25.565Z,101191.38
2022-08-01T15:38:52.085Z,101189.69
2022-08-01T15:41:18.466Z,101194.53
2022-08-01T15:43:45.073Z,101192.50
2022-08-01T15:46:11.823Z,101194.34
2022-08-01T15:48:40.117Z,101201.72
2022-08-01T15:51:06.586Z,101203.31
2022-08-01T15:53:32.913Z,101207.56
2022-08-01T15:55:59.172Z,101208.03
2022-08-01T15:58:25.487Z,101204.44
2022-08-01T16:00:51.718Z,101213.59
2022-08-01T16:03:17.965Z,101209.88
2022-08-01T16:05:44.465Z,101206.59
2022-08-01T16:08:10.857Z,101206.00
2022-08-01T16:10:37.123Z,101207.44
2022-08-01T16:13:07.140Z,101211.44
2022-08-01T16:15:37.113Z,101212.06
2022-08-01T16:18:03.849Z,101206.63
2022-08-01T16:20:30.073Z,101204.94
2022-08-01T16:22:56.313Z,101203.75
2022-08-01T16:25:22.588Z,101205.09
2022-08-01T16:27:48.855Z,101205.56
2022-08-01T16:30:15.205Z,101197.84
2022-08-01T16:32:47.069Z,101206.41
2022-08-01T16:35:20.427Z,101212.09
2022-08-01T16:37:46.675Z,101197.28
2022-08-01T16:40:13.268Z,101200.66
2022-08-01T16:42:39.566Z,101206.06
2022-08-01T16:45:08.790Z,101207.59
2022-08-01T16:47:40.260Z,101201.59
2022-08-01T16:50:06.523Z,101206.78
2022-08-01T16:52:32.760Z,101202.06
2022-08-01T16:54:58.971Z,101210.13
2022-08-01T16:57:25.244Z,101213.88
2022-08-01T16:59:51.507Z,101210.41
2022-08-01T17:02:17.828Z,101205.34
2022-08-01T17:04:44.102Z,101210.06
2022-08-01T17:07:10.726Z,101209.44
2022-08-01T17:09:41.327Z,101211.63
2022-08-01T17:12:09.494Z,101220.31
2022-08-01T17:14:35.754Z,101218.88
2022-08-01T17:17:01.982Z,101218.25
2022-08-01T17:19:32.956Z,101210.91
2022-08-01T17:21:59.640Z,101211.63
2022-08-01T17:24:25.942Z,101213.69
2022-08-01T17:26:52.306Z,101207.41
2022-08-01T17:29:18.567Z,101218.38
2022-08-01T17:31:44.843Z,101212.47
2022-08-01T17:34:11.124Z,101218.25
2022-08-01T17:36:37.367Z,101215.47
2022-08-01T17:39:03.587Z,101225.50
2022-08-01T17:41:29.888Z,101218.25
2022-08-01T17:43:56.115Z,101220.31
2022-08-01T17:46:22.427Z,101217.41
2022-08-01T17:48:48.843Z,101221.25
2022-08-01T17:51:19.347Z,101220.91
2022-08-01T17:53:55.677Z,101231.13
2022-08-01T17:56:23.404Z,101231.13
2022-08-01T17:58:52.134Z,101230.41
2022-08-01T18:01:18.824Z,101233.63
2022-08-01T18:03:45.178Z,101226.88
2022-08-01T18:06:11.420Z,101226.75
2022-08-01T18:08:37.676Z,101222.31
2022-08-01T18:11:03.920Z,101234.97
2022-08-01T18:13:30.188Z,101230.50
2022-08-01T18:15:56.450Z,101228.22
2022-08-01T18:18:33.212Z,101225.06
2022-08-01T18:21:00.373Z,101231.91
2022-08-01T18:23:26.674Z,101230.47
2022-08-01T18:25:52.949Z,101239.47
2022-08-01T18:28:31.169Z,101240.41
2022-08-01T18:30:58.865Z,101233.72
2022-08-01T18:33:25.143Z,101236.84
2022-08-01T18:35:52.072Z,101239.44
2022-08-01T18:38:19.873Z,101240.41
2022-08-01T18:40:46.334Z,101240.47
2022-08-01T18:43:12.545Z,101240.97
2022-08-01T18:45:42.755Z,101247.41
2022-08-01T18:48:09.429Z,101257.72
2022-08-01T18:50:35.643Z,101253.75
2022-08-01T18:53:01.875Z,101255.88
2022-08-01T18:55:28.195Z,101263.81
2022-08-01T18:57:54.419Z,101258.34
2022-08-01T19:00:20.702Z,101261.16
2022-08-01T19:02:47.019Z,101266.53
2022-08-01T19:05:13.291Z,101266.63
2022-08-01T19:08:06.877Z,101268.38
2022-08-01T19:10:25.812Z,101271.81
2022-08-01T19:12:52.067Z,101270.59
2022-08-01T19:15:18.253Z,101282.13
2022-08-01T19:17:44.586Z,101276.41
2022-08-01T19:20:10.814Z,101285.59
2022-08-01T19:22:37.088Z,101282.94
2022-08-01T19:25:03.385Z,101285.72
2022-08-01T19:27:29.660Z,101295.53
2022-08-01T19:29:55.927Z,101300.06
2022-08-01T19:32:22.171Z,101297.31
2022-08-01T19:34:48.575Z,101302.47
2022-08-01T19:37:14.847Z,101303.13
2022-08-01T19:39:41.145Z,101306.34
2022-08-01T19:42:07.394Z,101308.72
2022-08-01T19:44:33.651Z,101311.06
2022-08-01T19:46:59.892Z,101310.66
2022-08-01T19:49:26.192Z,101316.84
2022-08-01T19:51:52.690Z,101316.25
2022-08-01T19:54:18.939Z,101320.06
2022-08-01T19:56:45.190Z,101323.03
2022-08-01T19:59:11.371Z,101333.22
2022-08-01T20:01:37.637Z,101335.38
2022-08-01T20:04:03.942Z,101329.22
2022-08-01T20:06:30.193Z,101332.44
2022-08-01T20:08:56.391Z,101342.84
2022-08-01T20:11:22.595Z,101353.72
2022-08-01T20:13:48.877Z,101350.31
2022-08-01T20:16:15.117Z,101358.00
2022-08-01T20:18:41.301Z,101361.19
2022-08-01T20:21:07.518Z,101365.03
2022-08-01T20:23:33.758Z,101352.69
2022-08-01T20:25:59.951Z,101363.97
2022-08-01T20:28:26.168Z,101369.50
2022-08-01T20:30:52.366Z,101366.34
2022-08-01T20:33:18.658Z,101376.69
2022-08-01T20:35:52.933Z,101371.38
2022-08-01T20:38:20.169Z,101373.34
2022-08-01T20:40:49.224Z,101371.63
2022-08-01T20:43:15.456Z,101382.88
2022-08-01T20:45:41.678Z,101378.41
2022-08-01T20:48:07.865Z,101383.31
2022-08-01T20:50:53.954Z,101383.53
2022-08-01T20:53:20.265Z,101378.47
2022-08-01T20:55:46.490Z,101391.59
2022-08-01T20:58:12.712Z,101391.19
2022-08-01T21:00:38.943Z,101401.81
2022-08-01T21:03:05.206Z,101393.34
2022-08-01T21:05:31.413Z,101401.22
2022-08-01T21:07:57.612Z,101395.50
2022-08-01T21:10:23.833Z,101409.94
2022-08-01T21:12:50.070Z,101404.44
2022-08-01T21:15:16.277Z,101410.81
2022-08-01T21:17:42.499Z,101409.97
2022-08-01T21:20:08.718Z,101412.72
2022-08-01T21:22:34.924Z,101418.88
2022-08-01T21:25:01.142Z,101417.81
2022-08-01T21:27:33.382Z,101425.22
2022-08-01T21:30:00.333Z,101430.72
2022-08-01T21:32:26.512Z,101440.47
2022-08-01T21:34:55.629Z,101434.75
2022-08-01T21:37:21.854Z,101439.19
2022-08-01T21:39:48.031Z,101447.22
2022-08-01T21:42:18.701Z,101449.75
2022-08-01T21:44:45.441Z,101453.38
2022-08-01T21:47:12.177Z,101442.75
2022-08-01T21:49:38.437Z,101443.16
2022-08-01T21:52:08.852Z,101440.84
2022-08-01T21:54:35.289Z,101438.50
2022-08-01T21:57:01.515Z,101448.69
2022-08-01T21:59:27.725Z,101444.66
2022-08-01T22:01:53.990Z,101451.81
2022-08-01T22:04:20.258Z,101449.69
2022-08-01T22:06:46.499Z,101450.31
2022-08-01T22:09:12.698Z,101458.97
2022-08-01T22:11:39.016Z,101460.03
2022-08-01T22:14:25.204Z,101462.09
2022-08-01T22:16:51.444Z,101461.47
2022-08-01T22:19:35.118Z,101465.69
2022-08-01T22:22:03.968Z,101461.66
2022-08-01T22:24:50.189Z,101462.03
2022-08-01T22:27:16.403Z,101464.16
2022-08-01T22:29:42.589Z,101461.41
2022-08-01T22:32:09.004Z,101466.06
2022-08-01T22:34:35.450Z,101468.63
2022-08-01T22:37:01.827Z,101455.69
2022-08-01T22:39:39.735Z,101455.06
2022-08-01T22:42:05.958Z,101466.06
2022-08-01T22:44:32.136Z,101462.88
2022-08-01T22:46:58.537Z,101464.97
2022-08-01T22:49:24.804Z,101472.78
2022-08-01T22:51:55.675Z,101466.84
2022-08-01T22:54:22.182Z,101476.16
2022-08-01T22:56:48.391Z,101477.44
2022-08-01T22:59:14.596Z,101476.56
2022-08-01T23:01:40.916Z,101488.19
2022-08-01T23:04:13.896Z,101485.63
2022-08-01T23:06:40.119Z,101484.78
2022-08-01T23:09:06.340Z,101480.53
2022-08-01T23:11:32.537Z,101479.88
2022-08-01T23:13:58.759Z,101479.63
2022-08-01T23:16:25.014Z,101481.50
2022-08-01T23:18:51.256Z,101476.41
2022-08-01T23:21:17.454Z,101470.66
2022-08-01T23:23:43.666Z,101476.75
2022-08-01T23:26:09.864Z,101474.44
2022-08-01T23:28:36.103Z,101471.88
2022-08-01T23:31:02.262Z,101467.81
2022-08-01T23:33:28.453Z,101467.81
2022-08-01T23:35:54.659Z,101465.50
2022-08-01T23:38:20.875Z,101467.53
2022-08-01T23:40:47.064Z,101466.53
2022-08-01T23:43:16.879Z,101465.19
2022-08-01T23:46:04.590Z,101465.59
2022-08-01T23:48:30.060Z,101470.44
2022-08-01T23:50:56.298Z,101462.59
2022-08-01T23:53:23.780Z,101466.41
2022-08-01T23:55:49.974Z,101465.53
2022-08-01T23:58:17.946Z,101473.78
